Strona główna
METAR-TAF:

METAR-TAF

Lotnisko :

Port lotniczy Ambon

Ambon, Indonezja

Szerokość geograficzna: 03-42S, Długość geograficzna: 128-05E, wysokość: 12 m

Aktualna obserwacja pogody

Raport powstał 31 minut temu, godzina 05:30 UTC
Wiatr 8 kt od północno-północny zachód, zmienny między zachodnio-północny zachód i północ
Temperatura 33°C
Wilgotność 56%
Ciśnienie 1009 hPa
Widzialność 10 km lub więcej
Rozproszone chmury na wysokości 1900 ft

METAR: WAPP 170530Z 33008KT 300V010 9999 SCT019 33/23 Q1009 NOSIG

czas: 15:01 (06:01 UTC)

Prognoza

Raport powstał 1 godzina i 1 minut temu, godzina 05:00 UTC
Prognoza ważna od 17 godzina 06 UTC do 18 godzina 06 UTC
Wiatr 6 kt od północ
Widzialność 10 km lub więcej
Rozproszone chmury na wysokości 1800 ft

TAF: WAPP 170500Z 1706/1806 35006KT 9999 SCT018

Obserwacja i prognoza pogody dla ponad 4000 lotnisk (raport METAR i TAF).

Dostępne stacje oznaczono żółtymi i czerwonymi punktami na mapie.

Najedź kursorem aby zobaczyć nazwę stacji.

Kliknij aby zobaczyć obserwacje i prognozy pogody.

Aby zmienić mapę: kliknij na zielony przycisk z czarnym krzyżykiem, aby powiększyć; na zielony przycisk z myślnikiem, aby pomniejszyć; na zielone strzałki, aby przejść do map sąsiednich.


METAR-TAF: